Terminal Aerodrome Forecast
Issued by NWS Boston, MA

Home | Current Version | Previous Version | Text Only | Print | Product List | Glossary On
Versions: 1 2 3 4 5 6 7 8 9 10 11 12 13 14 15 16 17 18 19 20 21 22 23 24 25 26 27 28 29 30 31 32 33 34 35 36 37 38 39 40 41 42 43 44
000
FTUS41 KBOX 091730 AAB
TAFPVD
TAF AMD
KPVD 091730Z 0918/1018 02006KT P6SM BKN035
     FM100200 VRB03KT P6SM OVC060
     FM100800 VRB03KT P6SM OVC020
     FM100900 01004KT P6SM VCSH OVC020
     FM101500 31005KT P6SM VCSH OVC008
     FM101700 26005KT 2SM -SHSN OVC008=

USA.gov is the U.S. government's official web portal to all federal, state and local government web resources and services.